Time;durP1;ratioP1;P1;durP2;ratioP2;P2;SDS_P1;SDS_P2;PMS_P1;PMS_P2;Temp;Humidity;BMP_temperature;BMP_pressure;BME280_temperature;BME280_humidity;BME280_pressure;Samples;Min_cycle;Max_cycle;Signal;HPM_P1;HPM_P2
2021/06/28 00:01:05;;;;;;;21.13;16.87;;;;;;;;;;5031080;28;20440;-47
2021/06/28 00:03:32;;;;;;;18.03;15.67;;;;;;;;;;5031191;28;20876;-48
2021/06/28 00:05:58;;;;;;;20.40;16.13;;;;;;;;;;5031775;28;20540;-47
2021/06/28 00:08:24;;;;;;;18.97;16.27;;;;;;;;;;5031073;28;20449;-48
2021/06/28 00:10:50;;;;;;;20.20;16.10;;;;;;;;;;5030832;28;20735;-47
2021/06/28 00:13:16;;;;;;;21.37;17.43;;;;;;;;;;5031140;28;20545;-47
2021/06/28 00:15:42;;;;;;;22.30;17.17;;;;;;;;;;5031258;28;20411;-49
2021/06/28 00:18:09;;;;;;;21.83;17.03;;;;;;;;;;5029838;28;20446;-48
2021/06/28 00:20:35;;;;;;;18.27;16.47;;;;;;;;;;5031028;28;20497;-48
2021/06/28 00:23:02;;;;;;;18.80;16.77;;;;;;;;;;5030937;28;20377;-49
2021/06/28 00:25:29;;;;;;;22.47;18.00;;;;;;;;;;5031081;28;20410;-48
2021/06/28 00:27:55;;;;;;;21.80;16.20;;;;;;;;;;5030872;28;20445;-49
2021/06/28 00:30:21;;;;;;;21.73;16.33;;;;;;;;;;5030410;28;20438;-49
2021/06/28 00:32:48;;;;;;;19.07;17.03;;;;;;;;;;5030985;28;20380;-47
2021/06/28 00:35:14;;;;;;;20.83;15.97;;;;;;;;;;5030753;28;20375;-48
2021/06/28 00:37:41;;;;;;;21.53;16.47;;;;;;;;;;5030862;28;20905;-48
2021/06/28 00:40:08;;;;;;;20.27;17.30;;;;;;;;;;5030497;28;20774;-48
2021/06/28 00:42:34;;;;;;;17.83;15.97;;;;;;;;;;5030589;28;20421;-48
2021/06/28 00:45:00;;;;;;;20.10;17.93;;;;;;;;;;5030809;28;20844;-48
2021/06/28 00:47:26;;;;;;;21.03;16.70;;;;;;;;;;5030466;28;20461;-47
2021/06/28 00:49:52;;;;;;;24.00;18.30;;;;;;;;;;5030696;28;20380;-47
2021/06/28 00:52:18;;;;;;;23.23;16.20;;;;;;;;;;5030070;28;20405;-47
2021/06/28 00:54:44;;;;;;;22.80;16.97;;;;;;;;;;5030845;28;20460;-47
2021/06/28 00:57:10;;;;;;;24.10;18.23;;;;;;;;;;5030501;28;20410;-48
2021/06/28 00:59:36;;;;;;;19.80;17.50;;;;;;;;;;5030628;28;20412;-47
2021/06/28 01:02:04;;;;;;;21.20;16.40;;;;;;;;;;5029098;28;20416;-48
2021/06/28 01:04:30;;;;;;;17.13;15.33;;;;;;;;;;5029937;28;20409;-48
2021/06/28 01:06:56;;;;;;;21.77;17.40;;;;;;;;;;5029984;28;20392;-48
2021/06/28 01:09:22;;;;;;;19.83;16.70;;;;;;;;;;5030393;28;20554;-47
2021/06/28 01:11:49;;;;;;;18.03;15.33;;;;;;;;;;5030388;28;20479;-47
2021/06/28 01:14:15;;;;;;;21.77;16.83;;;;;;;;;;5030542;28;20374;-47
2021/06/28 01:16:41;;;;;;;20.10;17.00;;;;;;;;;;5030700;28;20381;-47
2021/06/28 01:19:08;;;;;;;16.80;15.20;;;;;;;;;;5030655;28;20518;-48
2021/06/28 01:21:34;;;;;;;18.80;15.90;;;;;;;;;;5030208;28;20511;-48
2021/06/28 01:24:00;;;;;;;22.07;18.00;;;;;;;;;;5030312;28;20386;-49
2021/06/28 01:26:26;;;;;;;20.33;17.37;;;;;;;;;;5030243;28;20390;-49
2021/06/28 01:28:52;;;;;;;23.90;17.13;;;;;;;;;;5030145;28;20465;-47
2021/06/28 01:31:18;;;;;;;17.73;15.80;;;;;;;;;;5029910;28;20838;-49
2021/06/28 01:33:44;;;;;;;21.20;16.97;;;;;;;;;;5030034;28;20456;-48
2021/06/28 01:36:10;;;;;;;24.07;17.37;;;;;;;;;;5029876;28;20411;-48
2021/06/28 01:38:36;;;;;;;23.67;17.17;;;;;;;;;;5030112;28;20398;-48
2021/06/28 01:41:02;;;;;;;20.73;17.27;;;;;;;;;;5029799;28;20409;-49
2021/06/28 01:43:28;;;;;;;20.23;16.10;;;;;;;;;;5030200;28;20838;-49
2021/06/28 01:45:55;;;;;;;20.03;17.70;;;;;;;;;;5030047;28;20400;-48
2021/06/28 01:48:21;;;;;;;17.80;16.00;;;;;;;;;;5030039;28;20437;-48
2021/06/28 01:50:47;;;;;;;19.80;16.43;;;;;;;;;;5029445;28;20421;-48
2021/06/28 01:53:14;;;;;;;25.63;15.90;;;;;;;;;;5030212;28;20922;-49
2021/06/28 01:55:40;;;;;;;23.30;18.80;;;;;;;;;;5030069;28;20403;-47
2021/06/28 01:58:07;;;;;;;20.40;17.50;;;;;;;;;;5030234;28;20743;-47
2021/06/28 02:00:36;;;;;;;20.67;17.27;;;;;;;;;;5029680;28;20429;-48
2021/06/28 02:03:06;;;;;;;24.30;18.40;;;;;;;;;;5030123;28;20410;-48
2021/06/28 02:05:33;;;;;;;23.67;19.20;;;;;;;;;;5030050;28;20417;-48
2021/06/28 02:07:59;;;;;;;20.87;18.20;;;;;;;;;;5029940;28;20939;-48
2021/06/28 02:10:26;;;;;;;21.10;19.00;;;;;;;;;;5029732;28;20431;-48
2021/06/28 02:12:52;;;;;;;19.33;16.60;;;;;;;;;;5030441;28;20925;-47
2021/06/28 02:15:22;;;;;;;19.30;17.40;;;;;;;;;;5033643;28;20416;-47
2021/06/28 02:17:48;;;;;;;23.10;18.00;;;;;;;;;;5033393;28;20375;-47
2021/06/28 02:20:14;;;;;;;24.20;17.90;;;;;;;;;;5033382;28;20472;-47
2021/06/28 02:22:40;;;;;;;18.57;16.20;;;;;;;;;;5033472;28;20859;-47
2021/06/28 02:25:10;;;;;;;20.03;16.47;;;;;;;;;;5033428;28;20869;-47
2021/06/28 02:27:36;;;;;;;22.03;17.60;;;;;;;;;;5033439;28;20556;-48
2021/06/28 02:30:05;;;;;;;20.87;17.90;;;;;;;;;;5033207;28;20419;-47
2021/06/28 02:32:31;;;;;;;21.30;17.57;;;;;;;;;;5032958;28;20415;-47
2021/06/28 02:34:57;;;;;;;20.80;18.60;;;;;;;;;;5033257;28;20807;-47
2021/06/28 02:37:23;;;;;;;24.73;18.63;;;;;;;;;;5033011;28;20390;-48
2021/06/28 02:39:49;;;;;;;23.80;18.67;;;;;;;;;;5033034;28;20386;-47
2021/06/28 02:42:16;;;;;;;20.83;17.50;;;;;;;;;;5032792;28;20440;-47
2021/06/28 02:44:42;;;;;;;20.50;18.07;;;;;;;;;;5033087;28;20436;-48
2021/06/28 02:47:08;;;;;;;18.57;16.57;;;;;;;;;;5032965;28;20713;-48
2021/06/28 02:49:34;;;;;;;23.90;18.63;;;;;;;;;;5032789;28;20387;-49
2021/06/28 02:52:00;;;;;;;22.00;18.23;;;;;;;;;;5032576;28;20549;-48
2021/06/28 02:54:27;;;;;;;26.27;20.93;;;;;;;;;;5032780;28;20390;-49
2021/06/28 02:56:53;;;;;;;25.43;18.87;;;;;;;;;;5032884;28;20404;-48
2021/06/28 02:59:18;;;;;;;21.77;18.00;;;;;;;;;;5032727;28;20470;-47
2021/06/28 03:01:44;;;;;;;20.27;16.83;;;;;;;;;;5032848;28;20449;-48
2021/06/28 03:04:11;;;;;;;24.67;17.97;;;;;;;;;;5032577;28;20390;-49
2021/06/28 03:06:37;;;;;;;22.93;18.20;;;;;;;;;;5032898;28;20404;-48
2021/06/28 03:09:03;;;;;;;24.23;19.10;;;;;;;;;;5032644;28;20434;-49
2021/06/28 03:11:29;;;;;;;25.77;19.97;;;;;;;;;;5031306;28;20414;-47
2021/06/28 03:13:55;;;;;;;23.70;19.20;;;;;;;;;;5032900;28;20388;-47
2021/06/28 03:16:21;;;;;;;21.33;19.13;;;;;;;;;;5032772;28;20471;-48
2021/06/28 03:18:47;;;;;;;23.93;18.77;;;;;;;;;;5032504;28;20383;-48
2021/06/28 03:21:13;;;;;;;25.80;19.50;;;;;;;;;;5032245;28;20906;-48
2021/06/28 03:23:43;;;;;;;25.00;19.67;;;;;;;;;;5032119;28;20383;-47
2021/06/28 03:26:10;;;;;;;22.23;19.83;;;;;;;;;;5032215;28;20495;-47
2021/06/28 03:28:36;;;;;;;21.87;19.53;;;;;;;;;;5032108;28;20456;-47
2021/06/28 03:31:03;;;;;;;21.47;18.20;;;;;;;;;;5031622;28;20477;-47
2021/06/28 03:33:29;;;;;;;20.73;18.10;;;;;;;;;;5032111;28;20461;-49
2021/06/28 03:35:55;;;;;;;20.93;18.13;;;;;;;;;;5032034;28;20474;-47
2021/06/28 03:38:21;;;;;;;22.33;17.03;;;;;;;;;;5032395;28;20505;-47
2021/06/28 03:40:47;;;;;;;26.23;19.43;;;;;;;;;;5031666;28;20469;-47
2021/06/28 03:43:13;;;;;;;26.13;20.13;;;;;;;;;;5031917;28;20413;-47
2021/06/28 03:45:39;;;;;;;25.20;18.90;;;;;;;;;;5031778;28;20382;-48
2021/06/28 03:48:07;;;;;;;23.27;18.70;;;;;;;;;;5031757;28;20553;-48
2021/06/28 03:50:33;;;;;;;20.17;17.73;;;;;;;;;;5031727;28;20420;-48
2021/06/28 03:52:59;;;;;;;21.00;18.10;;;;;;;;;;5031843;28;20369;-47
2021/06/28 03:55:25;;;;;;;19.20;17.20;;;;;;;;;;5032056;28;20891;-48
2021/06/28 03:57:51;;;;;;;20.40;18.23;;;;;;;;;;5031588;28;20407;-48
2021/06/28 04:00:18;;;;;;;22.03;17.53;;;;;;;;;;5031241;28;20429;-48
2021/06/28 04:02:45;;;;;;;22.33;18.47;;;;;;;;;;5031431;28;20443;-49
2021/06/28 04:05:13;;;;;;;25.70;19.43;;;;;;;;;;5031537;28;20392;-47
2021/06/28 04:07:39;;;;;;;26.33;19.10;;;;;;;;;;5031567;28;20454;-47
2021/06/28 04:10:06;;;;;;;22.70;19.40;;;;;;;;;;5031409;28;20396;-48
2021/06/28 04:12:32;;;;;;;22.50;20.07;;;;;;;;;;5030920;28;20407;-49
2021/06/28 04:14:58;;;;;;;23.63;19.97;;;;;;;;;;5031344;28;20383;-47
2021/06/28 04:17:25;;;;;;;20.73;18.40;;;;;;;;;;5031205;28;20412;-47
2021/06/28 04:19:51;;;;;;;21.63;18.03;;;;;;;;;;5031261;28;20403;-50
2021/06/28 04:22:17;;;;;;;22.20;19.73;;;;;;;;;;5030916;28;20381;-47
2021/06/28 04:24:43;;;;;;;32.00;19.83;;;;;;;;;;5031218;28;20379;-47
2021/06/28 04:27:09;;;;;;;25.30;21.13;;;;;;;;;;5030895;28;20371;-47
2021/06/28 04:29:35;;;;;;;27.83;21.30;;;;;;;;;;5031076;28;20437;-47
2021/06/28 04:32:02;;;;;;;23.87;20.17;;;;;;;;;;5030737;28;20418;-47
2021/06/28 04:34:28;;;;;;;25.37;20.80;;;;;;;;;;5031083;28;20405;-49
2021/06/28 04:36:54;;;;;;;25.03;20.93;;;;;;;;;;5030555;28;20491;-47
2021/06/28 04:39:20;;;;;;;24.57;20.00;;;;;;;;;;5031013;28;20409;-47
2021/06/28 04:41:46;;;;;;;23.03;19.40;;;;;;;;;;5030450;28;20509;-47
2021/06/28 04:44:12;;;;;;;26.20;20.87;;;;;;;;;;5030960;28;20457;-48
2021/06/28 04:46:38;;;;;;;27.50;21.53;;;;;;;;;;5030878;28;20756;-47
2021/06/28 04:49:04;;;;;;;26.00;20.80;;;;;;;;;;5030758;28;20636;-47
2021/06/28 04:51:32;;;;;;;29.07;19.50;;;;;;;;;;5030501;28;20533;-47
2021/06/28 04:53:58;;;;;;;21.97;19.33;;;;;;;;;;5030667;28;20383;-47
2021/06/28 04:56:24;;;;;;;31.17;23.50;;;;;;;;;;5030843;28;20381;-47
2021/06/28 04:58:50;;;;;;;28.77;21.57;;;;;;;;;;5030697;28;20421;-48
2021/06/28 05:01:16;;;;;;;32.40;23.57;;;;;;;;;;5030443;28;20429;-47
2021/06/28 05:03:43;;;;;;;25.57;22.83;;;;;;;;;;5030705;28;20421;-47
2021/06/28 05:06:09;;;;;;;26.93;21.70;;;;;;;;;;5030726;28;20569;-50
2021/06/28 05:08:35;;;;;;;28.90;24.03;;;;;;;;;;5030475;28;20460;-47
2021/06/28 05:11:01;;;;;;;28.73;24.23;;;;;;;;;;5030426;28;20814;-47
2021/06/28 05:13:27;;;;;;;33.77;23.37;;;;;;;;;;5030846;28;20407;-48
2021/06/28 05:15:53;;;;;;;32.33;24.40;;;;;;;;;;5030835;28;20373;-47
2021/06/28 05:18:19;;;;;;;28.10;22.07;;;;;;;;;;5030740;28;20406;-48
2021/06/28 05:20:45;;;;;;;31.70;27.10;;;;;;;;;;5030479;28;20460;-48
2021/06/28 05:23:11;;;;;;;29.30;24.23;;;;;;;;;;5030808;28;20436;-47
2021/06/28 05:25:37;;;;;;;32.20;23.73;;;;;;;;;;5030587;28;20787;-48
2021/06/28 05:28:03;;;;;;;30.33;23.00;;;;;;;;;;5030437;28;20782;-48
2021/06/28 05:30:29;;;;;;;24.60;21.90;;;;;;;;;;5029839;28;20437;-48
2021/06/28 05:32:55;;;;;;;31.60;24.17;;;;;;;;;;5030645;28;20394;-47
2021/06/28 05:35:21;;;;;;;29.50;23.70;;;;;;;;;;5031027;28;20742;-48
2021/06/28 05:37:47;;;;;;;23.80;21.30;;;;;;;;;;5030358;28;20398;-48
2021/06/28 05:40:13;;;;;;;25.40;21.33;;;;;;;;;;5030062;28;20553;-48
2021/06/28 05:42:39;;;;;;;27.80;22.07;;;;;;;;;;5030151;28;20389;-48
2021/06/28 05:45:06;;;;;;;25.17;20.73;;;;;;;;;;5030223;28;20398;-48
2021/06/28 05:47:33;;;;;;;25.27;21.00;;;;;;;;;;5031929;28;20402;-47
2021/06/28 05:49:59;;;;;;;27.80;21.20;;;;;;;;;;5034034;28;20420;-49
2021/06/28 05:52:25;;;;;;;22.33;19.93;;;;;;;;;;5034056;28;20402;-49
2021/06/28 05:54:51;;;;;;;22.93;20.30;;;;;;;;;;5034014;28;20456;-47
2021/06/28 05:57:19;;;;;;;22.73;20.43;;;;;;;;;;5033874;28;20494;-48
2021/06/28 05:59:45;;;;;;;23.90;21.40;;;;;;;;;;5033855;28;20426;-47
2021/06/28 06:02:12;;;;;;;23.80;20.23;;;;;;;;;;5033572;28;20452;-49
2021/06/28 06:04:38;;;;;;;27.90;22.73;;;;;;;;;;5033785;28;20410;-48
2021/06/28 06:07:04;;;;;;;26.10;20.00;;;;;;;;;;5033475;28;20399;-48
2021/06/28 06:09:30;;;;;;;25.53;22.53;;;;;;;;;;5033672;28;20485;-48
2021/06/28 06:11:56;;;;;;;24.13;20.90;;;;;;;;;;5033188;28;20396;-50
2021/06/28 06:14:22;;;;;;;23.97;21.47;;;;;;;;;;5033539;28;20466;-48
2021/06/28 06:16:49;;;;;;;28.47;24.17;;;;;;;;;;5033479;28;20763;-48
2021/06/28 06:19:15;;;;;;;25.60;22.97;;;;;;;;;;5033511;28;20494;-48
2021/06/28 06:21:41;;;;;;;23.70;20.77;;;;;;;;;;5033074;28;20464;-47
2021/06/28 06:24:07;;;;;;;21.27;18.90;;;;;;;;;;5033640;28;20405;-48
2021/06/28 06:26:33;;;;;;;22.70;20.30;;;;;;;;;;5033421;28;20415;-48
2021/06/28 06:28:59;;;;;;;22.27;19.97;;;;;;;;;;5033152;28;20459;-48
2021/06/28 06:31:25;;;;;;;23.47;21.27;;;;;;;;;;5032838;28;20446;-48
2021/06/28 06:33:51;;;;;;;20.63;18.53;;;;;;;;;;5033065;28;20409;-48
2021/06/28 06:36:17;;;;;;;25.83;20.70;;;;;;;;;;5033070;28;20827;-48
2021/06/28 06:38:43;;;;;;;23.30;20.80;;;;;;;;;;5033011;28;20407;-48
2021/06/28 06:41:09;;;;;;;23.00;20.67;;;;;;;;;;5032838;28;20457;-48
2021/06/28 06:43:35;;;;;;;22.73;20.50;;;;;;;;;;5032961;28;20437;-48
2021/06/28 06:46:01;;;;;;;23.13;20.93;;;;;;;;;;5033009;28;20426;-48
2021/06/28 06:48:27;;;;;;;20.43;18.37;;;;;;;;;;5032756;28;20553;-48
2021/06/28 06:50:53;;;;;;;19.00;17.30;;;;;;;;;;5032935;28;20508;-48
2021/06/28 06:53:19;;;;;;;20.77;18.67;;;;;;;;;;5032977;28;20398;-48
2021/06/28 06:55:45;;;;;;;19.67;17.87;;;;;;;;;;5032744;28;20762;-48
2021/06/28 06:58:11;;;;;;;20.20;18.20;;;;;;;;;;5032409;28;20501;-48
2021/06/28 07:00:39;;;;;;;19.37;17.50;;;;;;;;;;5031913;28;20834;-49
2021/06/28 07:03:06;;;;;;;21.37;19.27;;;;;;;;;;5032817;28;20410;-48
2021/06/28 07:05:32;;;;;;;22.50;19.57;;;;;;;;;;5032515;28;20762;-50
2021/06/28 07:07:57;;;;;;;20.70;18.80;;;;;;;;;;5032644;28;20457;-51
2021/06/28 07:10:24;;;;;;;24.17;18.77;;;;;;;;;;5032216;28;20428;-48
2021/06/28 07:12:50;;;;;;;18.43;16.70;;;;;;;;;;5032800;28;20401;-50
2021/06/28 07:15:17;;;;;;;19.73;17.77;;;;;;;;;;5032282;28;20413;-50
2021/06/28 07:17:43;;;;;;;18.97;17.07;;;;;;;;;;5032388;28;20537;-48
2021/06/28 07:20:13;;;;;;;17.07;15.40;;;;;;;;;;5032156;28;20422;-48
2021/06/28 07:22:39;;;;;;;21.83;18.27;;;;;;;;;;5032234;28;20420;-48
2021/06/28 07:25:07;;;;;;;17.80;16.00;;;;;;;;;;5032451;28;20781;-48
2021/06/28 07:27:33;;;;;;;19.87;17.70;;;;;;;;;;5032190;28;20495;-48
2021/06/28 07:29:59;;;;;;;20.97;18.73;;;;;;;;;;5032015;28;20912;-48
2021/06/28 07:32:25;;;;;;;19.23;17.20;;;;;;;;;;5031954;28;20895;-48
2021/06/28 07:34:51;;;;;;;20.83;16.33;;;;;;;;;;5032492;28;20441;-49
2021/06/28 07:37:17;;;;;;;16.03;14.63;;;;;;;;;;5032006;28;20405;-48
2021/06/28 07:39:43;;;;;;;17.33;15.63;;;;;;;;;;5032038;28;20432;-49
2021/06/28 07:42:09;;;;;;;16.37;14.77;;;;;;;;;;5032100;28;20839;-50
2021/06/28 07:44:35;;;;;;;16.37;14.97;;;;;;;;;;5032291;28;20480;-50
2021/06/28 07:47:01;;;;;;;15.63;14.10;;;;;;;;;;5031904;28;20895;-51
2021/06/28 07:49:27;;;;;;;15.07;13.70;;;;;;;;;;5031973;28;20457;-51
2021/06/28 07:51:55;;;;;;;16.17;14.30;;;;;;;;;;5031531;28;21215;-50
2021/06/28 07:54:22;;;;;;;14.60;13.07;;;;;;;;;;5028290;28;20421;-48
2021/06/28 07:56:48;;;;;;;14.70;13.30;;;;;;;;;;5031000;28;20485;-50
2021/06/28 07:59:14;;;;;;;15.23;13.87;;;;;;;;;;5030941;28;20501;-48
2021/06/28 08:01:41;;;;;;;14.30;12.93;;;;;;;;;;5030749;28;20917;-49
2021/06/28 08:04:07;;;;;;;17.93;13.13;;;;;;;;;;5031326;28;20410;-48
2021/06/28 08:06:33;;;;;;;12.70;11.57;;;;;;;;;;5031539;28;20407;-48
2021/06/28 08:08:59;;;;;;;12.27;11.17;;;;;;;;;;5031612;28;20486;-48
2021/06/28 08:11:26;;;;;;;14.67;13.17;;;;;;;;;;5031110;28;20422;-48
2021/06/28 08:13:53;;;;;;;13.67;12.40;;;;;;;;;;5030023;28;20411;-49
2021/06/28 08:16:20;;;;;;;14.33;12.87;;;;;;;;;;5031360;28;20552;-48
2021/06/28 08:18:51;;;;;;;13.57;12.27;;;;;;;;;;5031295;28;20411;-51
2021/06/28 08:21:18;;;;;;;15.23;13.73;;;;;;;;;;5031211;28;20589;-48
2021/06/28 08:23:44;;;;;;;14.37;12.50;;;;;;;;;;5031136;28;20405;-48
2021/06/28 08:26:10;;;;;;;19.13;17.23;;;;;;;;;;5031229;28;20828;-48
2021/06/28 08:28:37;;;;;;;13.53;12.23;;;;;;;;;;5031005;28;20457;-51
2021/06/28 08:31:03;;;;;;;12.80;11.70;;;;;;;;;;5030774;28;20446;-49
2021/06/28 08:33:30;;;;;;;17.93;16.17;;;;;;;;;;5031088;28;20477;-48
2021/06/28 08:35:56;;;;;;;19.63;14.90;;;;;;;;;;5031118;28;20413;-49
2021/06/28 08:38:22;;;;;;;13.70;12.27;;;;;;;;;;5031052;28;20414;-48
2021/06/28 08:40:50;;;;;;;26.60;23.90;;;;;;;;;;5030704;28;20970;-48
2021/06/28 08:43:16;;;;;;;17.07;15.50;;;;;;;;;;5030726;28;20878;-52
2021/06/28 08:45:43;;;;;;;13.03;11.70;;;;;;;;;;5030994;28;20398;-49
2021/06/28 08:48:09;;;;;;;11.20;10.40;;;;;;;;;;5030643;28;20970;-49
2021/06/28 08:50:37;;;;;;;10.63;9.83;;;;;;;;;;5013052;28;20434;-49
2021/06/28 08:53:03;;;;;;;10.33;9.50;;;;;;;;;;5030765;28;20410;-49
2021/06/28 08:55:30;;;;;;;10.10;9.23;;;;;;;;;;5030745;28;20398;-49
2021/06/28 08:57:55;;;;;;;9.17;8.37;;;;;;;;;;5030605;28;20406;-49
2021/06/28 09:00:22;;;;;;;9.20;8.50;;;;;;;;;;5030763;28;20430;-50
2021/06/28 09:03:04;;;;;;;8.23;7.60;;;;;;;;;;5030621;28;20406;-51
2021/06/28 09:05:50;;;;;;;10.00;9.00;;;;;;;;;;5007900;28;20415;-49
2021/06/28 09:08:17;;;;;;;10.23;9.20;;;;;;;;;;5010479;28;20500;-49
2021/06/28 09:10:44;;;;;;;9.80;8.80;;;;;;;;;;5010178;28;20435;-51
2021/06/28 09:13:10;;;;;;;9.63;8.87;;;;;;;;;;5010843;28;20395;-50
2021/06/28 09:15:40;;;;;;;8.67;8.07;;;;;;;;;;5010843;28;20399;-49
2021/06/28 09:18:20;;;;;;;28.87;26.10;;;;;;;;;;5010894;28;20472;-49
2021/06/28 09:20:47;;;;;;;7.40;6.77;;;;;;;;;;5010287;28;20473;-50
2021/06/28 09:23:18;;;;;;;8.53;7.73;;;;;;;;;;5014077;28;20439;-49
2021/06/28 09:25:44;;;;;;;7.27;6.60;;;;;;;;;;5015075;28;20395;-50
2021/06/28 09:28:10;;;;;;;8.80;8.10;;;;;;;;;;5014746;28;20458;-51
2021/06/28 09:30:45;;;;;;;13.33;12.20;;;;;;;;;;5014204;28;20817;-51
2021/06/28 09:33:11;;;;;;;10.00;9.20;;;;;;;;;;5014576;28;20410;-49
2021/06/28 09:35:41;;;;;;;11.13;9.60;;;;;;;;;;5014202;28;20406;-48
2021/06/28 09:38:08;;;;;;;8.57;7.83;;;;;;;;;;5014398;28;20403;-49
2021/06/28 09:40:37;;;;;;;8.43;7.83;;;;;;;;;;5014293;28;20514;-50
2021/06/28 09:43:36;;;;;;;6.50;6.10;;;;;;;;;;5014378;28;20781;-49
2021/06/28 09:46:15;;;;;;;7.27;6.73;;;;;;;;;;4991241;28;20989;-48
2021/06/28 09:48:46;;;;;;;7.13;6.60;;;;;;;;;;5014194;28;20454;-49
2021/06/28 09:51:21;;;;;;;6.53;5.93;;;;;;;;;;5013705;28;20423;-51
2021/06/28 09:53:48;;;;;;;7.27;6.87;;;;;;;;;;5014134;28;20406;-50
2021/06/28 09:56:30;;;;;;;7.50;6.90;;;;;;;;;;5013783;28;20780;-50
2021/06/28 09:58:59;;;;;;;5.90;5.60;;;;;;;;;;5014155;28;20469;-49
2021/06/28 10:01:26;;;;;;;6.70;5.00;;;;;;;;;;5012366;28;20507;-49
2021/06/28 10:03:54;;;;;;;5.23;4.80;;;;;;;;;;5013340;28;20399;-51
2021/06/28 10:08:50;;;;;;;4.70;4.40;;;;;;;;;;5013344;28;20516;-50
2021/06/28 10:11:23;;;;;;;5.20;4.80;;;;;;;;;;5013451;28;20430;-50
2021/06/28 10:13:56;;;;;;;5.43;5.03;;;;;;;;;;5013697;28;20395;-50
2021/06/28 10:16:24;;;;;;;5.50;5.07;;;;;;;;;;5013804;28;20406;-51
2021/06/28 10:18:51;;;;;;;5.70;5.20;;;;;;;;;;5013527;28;20545;-51
2021/06/28 10:21:17;;;;;;;4.83;4.30;;;;;;;;;;5013031;28;20426;-49
2021/06/28 10:23:43;;;;;;;5.77;5.37;;;;;;;;;;5013174;28;20781;-49
2021/06/28 10:26:09;;;;;;;5.10;4.80;;;;;;;;;;5011906;28;20411;-49
2021/06/28 10:28:36;;;;;;;5.17;4.77;;;;;;;;;;5012334;28;20482;-49
2021/06/28 10:31:06;;;;;;;8.83;5.23;;;;;;;;;;5012236;28;20442;-49
2021/06/28 10:33:32;;;;;;;5.90;5.53;;;;;;;;;;5010336;28;20880;-49
2021/06/28 10:36:00;;;;;;;5.67;5.17;;;;;;;;;;5012770;28;20439;-51
2021/06/28 10:38:41;;;;;;;6.33;5.93;;;;;;;;;;5013309;28;20443;-49
2021/06/28 10:41:08;;;;;;;6.10;5.60;;;;;;;;;;5012935;28;20852;-49
2021/06/28 10:43:36;;;;;;;6.10;5.70;;;;;;;;;;5013189;28;20783;-49
2021/06/28 10:46:04;;;;;;;6.50;6.10;;;;;;;;;;5013162;28;20403;-49
2021/06/28 10:48:31;;;;;;;8.10;6.20;;;;;;;;;;5013077;28;20451;-49
2021/06/28 10:50:59;;;;;;;6.10;5.80;;;;;;;;;;5012726;28;20419;-49
2021/06/28 10:53:34;;;;;;;6.37;5.90;;;;;;;;;;5012706;28;20506;-52
2021/06/28 10:58:56;;;;;;;6.70;6.20;;;;;;;;;;5013032;28;20402;-50
2021/06/28 11:01:35;;;;;;;6.57;6.07;;;;;;;;;;5012721;28;20835;-49
2021/06/28 11:04:08;;;;;;;6.27;5.70;;;;;;;;;;5012776;28;20391;-48
2021/06/28 11:06:35;;;;;;;7.20;6.70;;;;;;;;;;5012817;28;20402;-51
2021/06/28 11:09:05;;;;;;;7.20;6.70;;;;;;;;;;5012522;28;20973;-50
2021/06/28 11:11:46;;;;;;;7.30;6.70;;;;;;;;;;5012830;28;20419;-48
2021/06/28 11:14:23;;;;;;;6.33;5.93;;;;;;;;;;5012680;28;20406;-51
2021/06/28 11:17:22;;;;;;;6.23;5.83;;;;;;;;;;5012874;28;20406;-49
2021/06/28 11:22:30;;;;;;;7.53;6.63;;;;;;;;;;5012483;28;20486;-51
2021/06/28 11:24:59;;;;;;;7.03;6.43;;;;;;;;;;5012274;28;20462;-52
2021/06/28 11:27:25;;;;;;;6.50;6.00;;;;;;;;;;5012484;28;20418;-49
2021/06/28 11:29:53;;;;;;;8.70;7.13;;;;;;;;;;5011306;28;20469;-49
2021/06/28 11:32:20;;;;;;;7.50;6.90;;;;;;;;;;5011984;28;20414;-49
2021/06/28 11:34:46;;;;;;;6.30;5.80;;;;;;;;;;5013045;28;20414;-50
2021/06/28 11:37:12;;;;;;;5.40;5.00;;;;;;;;;;5013301;28;20403;-50
2021/06/28 11:39:52;;;;;;;5.60;5.30;;;;;;;;;;5013447;28;20403;-50
2021/06/28 11:42:20;;;;;;;5.93;5.53;;;;;;;;;;5013223;28;20403;-50
2021/06/28 11:45:06;;;;;;;6.43;5.40;;;;;;;;;;5013206;28;20404;-50
2021/06/28 11:47:44;;;;;;;5.90;5.30;;;;;;;;;;5013110;28;20410;-50
2021/06/28 11:50:27;;;;;;;5.90;5.50;;;;;;;;;;5012954;28;20949;-50
2021/06/28 11:52:58;;;;;;;5.50;5.20;;;;;;;;;;5013028;28;20883;-50
2021/06/28 11:55:25;;;;;;;6.07;5.67;;;;;;;;;;5013226;28;20466;-50
2021/06/28 11:57:54;;;;;;;6.40;5.90;;;;;;;;;;5012834;28;20418;-50
2021/06/28 12:00:21;;;;;;;7.20;6.50;;;;;;;;;;5013008;28;20426;-50
2021/06/28 12:02:47;;;;;;;7.13;6.53;;;;;;;;;;5012964;28;20407;-50
2021/06/28 12:05:13;;;;;;;6.50;6.10;;;;;;;;;;5012648;28;20399;-50
2021/06/28 12:07:40;;;;;;;8.20;6.13;;;;;;;;;;5012113;28;20537;-50
2021/06/28 12:10:06;;;;;;;6.70;6.20;;;;;;;;;;5012489;28;20438;-50
2021/06/28 12:12:32;;;;;;;6.93;6.30;;;;;;;;;;5012214;28;20407;-50
2021/06/28 12:14:59;;;;;;;6.93;6.33;;;;;;;;;;5012207;28;20478;-50
2021/06/28 12:17:30;;;;;;;8.67;7.97;;;;;;;;;;5012011;28;20419;-50
2021/06/28 12:20:00;;;;;;;9.03;8.17;;;;;;;;;;5011442;28;20981;-49
2021/06/28 12:22:28;;;;;;;10.17;9.43;;;;;;;;;;5009857;28;20461;-49
2021/06/28 12:24:58;;;;;;;11.23;10.30;;;;;;;;;;5011362;28;20396;-49
2021/06/28 12:27:25;;;;;;;11.63;10.53;;;;;;;;;;5011083;28;20411;-50
2021/06/28 12:29:52;;;;;;;12.43;11.30;;;;;;;;;;5009483;28;20455;-50
2021/06/28 12:32:21;;;;;;;11.80;10.60;;;;;;;;;;5011353;28;20827;-50
2021/06/28 12:34:50;;;;;;;12.13;11.03;;;;;;;;;;5001936;28;20411;-50
2021/06/28 12:37:23;;;;;;;14.07;12.80;;;;;;;;;;4992160;28;20404;-51
2021/06/28 12:39:50;;;;;;;10.53;9.53;;;;;;;;;;4992448;28;20885;-51
2021/06/28 12:42:20;;;;;;;11.97;9.33;;;;;;;;;;4993182;28;20508;-51
2021/06/28 12:44:46;;;;;;;12.20;11.10;;;;;;;;;;4993279;28;20404;-51
2021/06/28 12:47:13;;;;;;;12.10;11.03;;;;;;;;;;4994170;28;20403;-51
2021/06/28 12:49:40;;;;;;;12.93;10.73;;;;;;;;;;4994182;28;20463;-51
2021/06/28 12:52:25;;;;;;;13.50;12.20;;;;;;;;;;4993741;28;20455;-52
2021/06/28 12:55:00;;;;;;;14.27;11.57;;;;;;;;;;5003926;28;20455;-51
2021/06/28 12:57:26;;;;;;;14.30;13.20;;;;;;;;;;5033336;28;20935;-51
2021/06/28 12:59:52;;;;;;;12.97;11.80;;;;;;;;;;5034297;28;20406;-51
2021/06/28 13:02:28;;;;;;;11.93;11.00;;;;;;;;;;5033306;28;20181;-51
2021/06/28 13:05:07;;;;;;;11.37;10.40;;;;;;;;;;5032849;28;20397;-51
2021/06/28 13:07:33;;;;;;;11.10;10.10;;;;;;;;;;5033124;28;20464;-52
2021/06/28 13:09:59;;;;;;;10.80;9.80;;;;;;;;;;5034101;28;20761;-52
2021/06/28 13:12:26;;;;;;;10.43;9.20;;;;;;;;;;5032280;28;20783;-51
2021/06/28 13:15:12;;;;;;;12.20;9.47;;;;;;;;;;5033528;28;20406;-51
2021/06/28 13:17:38;;;;;;;10.23;9.43;;;;;;;;;;5033197;28;20406;-51
2021/06/28 13:20:25;;;;;;;10.20;9.30;;;;;;;;;;5032480;28;20457;-51
2021/06/28 13:22:52;;;;;;;9.77;8.90;;;;;;;;;;5031459;28;20417;-51
2021/06/28 13:25:22;;;;;;;9.80;9.00;;;;;;;;;;5030572;28;20411;-52
2021/06/28 13:27:48;;;;;;;9.60;8.70;;;;;;;;;;5031343;28;20414;-52
2021/06/28 13:30:25;;;;;;;9.17;8.47;;;;;;;;;;5032931;28;20449;-51
2021/06/28 13:33:06;;;;;;;8.27;7.67;;;;;;;;;;5032343;28;20401;-51
2021/06/28 13:35:32;;;;;;;7.10;6.60;;;;;;;;;;5030839;28;20413;-51
2021/06/28 13:38:11;;;;;;;9.13;8.33;;;;;;;;;;5030615;28;20414;-50
2021/06/28 13:40:39;;;;;;;8.63;7.17;;;;;;;;;;5030186;28;20933;-50
2021/06/28 13:43:05;;;;;;;8.83;8.10;;;;;;;;;;5017519;28;20938;-50
2021/06/28 13:45:42;;;;;;;6.23;5.83;;;;;;;;;;5010984;28;20410;-50
2021/06/28 13:48:11;;;;;;;5.30;5.00;;;;;;;;;;5011532;28;20458;-50
2021/06/28 13:50:38;;;;;;;4.70;4.30;;;;;;;;;;5011248;28;20422;-50
2021/06/28 13:53:05;;;;;;;4.80;4.47;;;;;;;;;;5011553;28;20406;-50
2021/06/28 13:55:31;;;;;;;6.10;4.20;;;;;;;;;;5011938;28;20502;-50
2021/06/28 13:57:58;;;;;;;6.20;3.87;;;;;;;;;;5011152;28;20414;-50
2021/06/28 14:00:26;;;;;;;4.10;3.80;;;;;;;;;;5010707;28;20422;-50
2021/06/28 14:02:53;;;;;;;4.30;4.10;;;;;;;;;;5011088;28;20411;-50
2021/06/28 14:05:19;;;;;;;4.40;4.10;;;;;;;;;;5010294;28;20429;-50
2021/06/28 14:07:45;;;;;;;4.73;4.10;;;;;;;;;;5011054;28;20411;-50
2021/06/28 14:10:11;;;;;;;4.60;4.30;;;;;;;;;;5014449;28;20429;-49
2021/06/28 14:12:41;;;;;;;4.97;4.60;;;;;;;;;;5013648;28;20831;-50
2021/06/28 14:15:08;;;;;;;4.10;3.90;;;;;;;;;;5014525;28;20407;-50
2021/06/28 14:17:34;;;;;;;4.27;3.90;;;;;;;;;;5014183;28;20399;-50
2021/06/28 14:20:00;;;;;;;4.50;4.10;;;;;;;;;;5014182;28;20500;-50
2021/06/28 14:22:26;;;;;;;4.90;4.10;;;;;;;;;;5014113;28;20407;-51
2021/06/28 14:24:53;;;;;;;4.30;4.00;;;;;;;;;;5014880;28;20404;-51
2021/06/28 14:27:19;;;;;;;3.53;3.33;;;;;;;;;;5015375;28;20414;-52
2021/06/28 14:29:45;;;;;;;3.67;3.47;;;;;;;;;;5016389;28;20462;-51
2021/06/28 14:32:11;;;;;;;4.57;4.23;;;;;;;;;;5015190;28;20974;-51
2021/06/28 14:34:37;;;;;;;4.37;4.07;;;;;;;;;;5015091;28;20399;-51
2021/06/28 14:37:03;;;;;;;4.17;3.97;;;;;;;;;;5014890;28;20200;-51